Last 7 Days

Scotts Valley-South (Bella Vista)

Hourly Data | America/Los_Angeles
as of 5/8/26 10:14 AM PDT
Date & Time Temp (°F) RH (%) Dew Pt (°F) Wet Bulb (°F) Wind Dir (°) Wind Spd (mph) Wind Gust (mph) Solar Rad (W/m2) ETo Hr (In) BatVolt (V) CellRSSI (dB) Latest Rain (In) Daily Rain (In) Daily Min Temp (°F) Daily Max Temp (°F) Daily ETo (in)
5/8/26 - 1000 66.1 53 48.6 56.2 SE | 132 1.4 4.5 547 0.013 13.6 -53 0.00 0.00 41.7 68.2 0.022
5/8/26 - 0900 60.7 62 47.7 53.9 NNE | 31 0.8 3.3 376 0.008 13.8 -53 0.00 0.00 41.7 64.1 0.009
5/8/26 - 0800 49.6 78 43.0 46.7 S | 175 1.0 3.7 98 0.002 13.9 -53 0.00 0.00 41.7 55.9 0.002
5/8/26 - 0700 42.5 89 39.4 41.3 SSW | 210 1.2 4.6 21 0.000 12.9 -53 0.00 0.00 41.7 47.3 0.000
5/8/26 - 0600 43.4 83 38.7 41.5 S | 186 2.4 5.5 0 0.000 12.7 -55 0.00 0.00 43.1 47.3 0.000
5/8/26 - 0500 43.6 82 38.3 41.4 S | 190 1.8 4.9 0 0.000 12.7 -55 0.00 0.00 43.2 47.3 0.000
5/8/26 - 0400 44.6 79 38.4 42.0 SSW | 205 1.2 3.6 0 0.000 12.7 -55 0.00 0.00 43.6 47.3 0.000
5/8/26 - 0300 45.2 77 38.3 42.2 SSW | 194 1.2 3.7 0 0.000 12.7 -55 0.00 0.00 44.7 47.3 0.000
5/8/26 - 0200 46.3 75 38.8 43.0 SSW | 203 0.8 4.1 0 0.000 12.8 -55 0.00 0.00 45.8 47.3 0.000
5/8/26 - 0100 48.9 74 40.9 45.3 SSW | 202 1.7 4.5 0 0.000 12.8 -55 0.00 0.00 46.1 82.7 0.199
5/8/26 - 0000 52.0 72 43.1 47.9 S | 189 1.3 5.1 0 0.000 12.8 -55 0.00 0.00 46.1 82.7 0.199
5/7/26 - 2300 56.6 53 39.7 48.3 SSE | 158 0.8 3.8 0 0.000 12.9 -55 0.00 0.00 46.1 82.7 0.199
5/7/26 - 2200 63.4 37 36.4 49.6 WNW | 294 3.4 10.1 0 0.001 12.9 -53 0.00 0.00 46.1 82.7 0.199
5/7/26 - 2100 66.3 52 48.0 56.0 W | 274 4.0 10.3 1 0.001 12.9 -55 0.00 0.00 46.1 82.7 0.198
5/7/26 - 2000 73.2 47 51.4 59.8 NW | 304 3.3 8.5 70 0.002 13.0 -55 0.00 0.00 46.1 82.7 0.197
5/7/26 - 1900 77.3 43 52.9 61.7 WSW | 255 4.8 12.4 240 0.008 13.5 -55 0.00 0.00 46.1 82.7 0.195
5/7/26 - 1800 78.9 44 55.0 63.2 SW | 225 6.7 13.2 411 0.014 13.4 -55 0.00 0.00 46.1 82.7 0.187
5/7/26 - 1700 80.9 36 51.7 61.8 SSW | 213 7.0 14.3 576 0.019 13.4 -85 0.00 0.00 46.1 82.7 0.174
5/7/26 - 1600 81.4 35 51.0 61.4 SSW | 203 6.5 14.5 712 0.023 13.4 -55 0.00 0.00 46.1 82.7 0.154
5/7/26 - 1500 81.6 32 48.6 60.3 SSW | 203 4.3 11.0 812 0.025 13.5 -53 0.00 0.00 46.1 82.7 0.132
5/7/26 - 1400 79.1 37 50.7 60.9 ENE | 69 2.5 6.5 859 0.024 13.5 -55 0.00 0.00 46.1 80.3 0.107
5/7/26 - 1300 75.8 50 55.8 63.1 NE | 53 2.4 6.7 854 0.023 13.5 -53 0.00 0.00 46.1 77.6 0.083
5/7/26 - 1200 72.6 57 56.5 62.8 ESE | 116 2.6 7.5 790 0.021 13.5 -53 0.00 0.00 46.1 74.2 0.059
5/7/26 - 1100 70.2 60 55.9 61.9 ESE | 105 1.9 7.0 681 0.017 13.6 -51 0.00 0.00 46.1 71.7 0.039
5/7/26 - 1000 65.9 67 54.7 59.9 ESE | 103 1.5 4.5 532 0.012 13.7 -51 0.00 0.00 46.1 68.2 0.021
5/7/26 - 0900 61.4 76 53.7 57.8 NE | 55 0.6 2.9 364 0.007 13.7 -53 0.00 0.00 46.1 63.9 0.009
5/7/26 - 0800 52.1 94 50.4 52.1 SSW | 202 0.2 2.3 94 0.002 13.9 -53 0.00 0.00 46.1 56.6 0.002
5/7/26 - 0700 46.9 97 46.1 47.0 SSW | 199 0.6 3.0 21 0.000 12.9 -53 0.00 0.00 46.1 51.4 0.000
5/7/26 - 0600 46.8 97 46.0 46.9 S | 191 0.3 2.0 0 0.000 12.7 -51 0.00 0.00 46.4 51.4 0.000
5/7/26 - 0500 46.8 97 46.0 46.9 SW | 226 0.2 1.4 0 0.000 12.7 -51 0.00 0.00 46.4 51.4 0.000
5/7/26 - 0400 47.8 95 46.5 47.7 W | 279 0.3 2.1 0 0.000 12.7 -53 0.00 0.00 46.9 51.4 0.000
5/7/26 - 0300 49.0 95 47.8 49.1 SSW | 202 0.7 3.5 0 0.000 12.8 -55 0.00 0.00 48.4 51.4 0.000
5/7/26 - 0200 50.1 94 48.4 49.9 SW | 225 0.3 1.9 0 0.000 12.8 -55 0.00 0.00 48.9 51.4 0.000
5/7/26 - 0100 52.3 92 50.0 51.9 SSW | 197 1.3 3.4 0 0.000 12.8 -53 0.00 0.00 51.3 79.5 0.161
5/7/26 - 0000 53.8 90 50.9 53.1 SSW | 213 1.5 4.5 0 0.000 12.8 -55 0.00 0.00 53.1 79.5 0.161
5/6/26 - 2300 56.0 86 51.8 54.5 SW | 214 1.0 4.6 0 0.000 12.8 -55 0.00 0.00 53.3 79.5 0.161
5/6/26 - 2200 59.7 77 52.3 56.3 WNW | 298 1.4 4.2 0 0.000 12.8 -55 0.00 0.00 53.3 79.5 0.161
5/6/26 - 2100 64.3 65 52.4 57.9 NW | 307 3.4 7.3 1 0.000 12.9 -55 0.00 0.00 53.3 79.5 0.161
5/6/26 - 2000 68.3 58 52.8 59.4 WNW | 291 6.2 13.5 63 0.003 13.0 -51 0.00 0.00 53.3 79.5 0.160
5/6/26 - 1900 73.0 52 54.2 61.5 WNW | 285 7.9 13.0 228 0.008 13.5 -51 0.00 0.00 53.3 79.5 0.158
5/6/26 - 1800 77.7 45 54.8 62.9 WNW | 299 6.1 14.0 405 0.013 13.5 -53 0.00 0.00 53.3 79.5 0.150
5/6/26 - 1700 78.6 42 53.4 62.2 WNW | 286 4.0 9.5 568 0.017 13.5 -55 0.00 0.00 53.3 79.5 0.137
5/6/26 - 1600 76.5 48 55.2 62.9 E | 101 2.3 5.6 701 0.019 13.5 -85 0.00 0.00 53.3 78.0 0.120
5/6/26 - 1500 73.3 51 54.0 61.4 ESE | 111 2.7 6.5 796 0.021 13.6 -55 0.00 0.00 53.3 75.7 0.101
5/6/26 - 1400 70.4 53 52.7 59.9 ENE | 70 2.7 7.0 843 0.022 13.6 -55 0.00 0.00 53.3 72.2 0.079
5/6/26 - 1300 68.2 54 51.0 58.3 ENE | 71 3.0 7.4 835 0.021 13.6 -55 0.00 0.00 53.3 69.4 0.058
5/6/26 - 1200 65.9 58 50.6 57.3 ENE | 65 2.2 7.3 689 0.017 13.6 -53 0.00 0.00 53.3 67.5 0.037
5/6/26 - 1100 62.8 64 50.3 56.2 N | 2 1.8 6.5 366 0.009 13.6 -55 0.00 0.00 53.3 64.0 0.020
5/6/26 - 1000 59.5 74 51.3 55.6 SSE | 156 0.8 3.0 237 0.006 13.7 -53 0.00 0.00 53.3 61.4 0.010
5/6/26 - 0900 56.5 80 50.6 54.0 NNW | 348 0.9 2.8 118 0.003 13.7 -55 0.00 0.00 53.3 57.7 0.005
5/6/26 - 0800 54.4 86 50.2 52.9 N | 352 1.4 3.6 50 0.001 13.6 -55 0.00 0.00 53.3 55.4 0.002
5/6/26 - 0700 53.5 88 50.0 52.4 NNW | 345 1.8 4.5 7 0.000 12.8 -53 0.00 0.00 53.3 54.4 0.000
5/6/26 - 0600 53.5 87 49.8 52.3 NNW | 346 2.1 4.1 0 0.000 12.7 -55 0.00 0.00 53.4 54.4 0.000
5/6/26 - 0500 54.0 85 49.5 52.3 NNW | 342 1.6 3.3 0 0.000 12.7 -55 0.00 0.00 53.8 54.4 0.000
5/6/26 - 0400 54.1 84 49.3 52.2 NNW | 347 0.9 1.8 0 0.000 12.8 -55 0.00 0.00 54.1 54.4 0.000
5/6/26 - 0300 54.2 83 49.1 52.1 NNW | 342 0.6 2.0 0 0.000 12.8 -55 0.00 0.00 54.1 54.4 0.000
5/6/26 - 0200 54.2 82 48.8 52.0 NW | 324 1.8 5.3 0 0.000 12.8 -55 0.00 0.00 54.2 54.4 0.000
5/6/26 - 0100 54.1 82 48.7 51.9 NNW | 328 1.9 4.9 0 0.000 12.8 -53 0.00 0.00 45.5 70.8 0.141
5/6/26 - 0000 54.4 81 48.6 52.0 NW | 325 2.5 5.3 0 0.000 12.8 -53 0.00 0.00 45.5 70.8 0.141
5/5/26 - 2300 54.7 80 48.7 52.2 NNW | 341 1.6 4.5 0 0.000 12.8 -53 0.00 0.00 45.5 70.8 0.141
5/5/26 - 2200 54.9 79 48.7 52.2 NNW | 328 0.8 3.3 0 0.000 12.9 -55 0.00 0.00 45.5 70.8 0.141
5/5/26 - 2100 57.4 74 49.1 53.4 WNW | 299 2.5 8.2 1 0.000 12.9 -53 0.00 0.00 45.5 70.8 0.141
5/5/26 - 2000 62.9 63 50.2 56.1 WSW | 253 4.0 11.3 88 0.002 13.1 -55 0.00 0.00 45.5 70.8 0.140
5/5/26 - 1900 64.0 62 50.5 56.7 SW | 234 5.9 12.4 181 0.005 13.7 -55 0.00 0.00 45.5 70.8 0.139
5/5/26 - 1800 66.3 58 51.3 57.8 SW | 234 6.6 14.8 276 0.008 13.6 -55 0.00 0.00 45.5 70.8 0.134
5/5/26 - 1700 68.5 54 51.2 58.4 SSW | 212 7.1 14.2 498 0.014 13.6 -55 0.00 0.00 45.5 70.8 0.125
5/5/26 - 1600 68.7 52 50.6 58.2 SSW | 210 5.2 12.8 386 0.012 13.6 -55 0.00 0.00 45.5 70.8 0.111
5/5/26 - 1500 68.9 52 50.3 58.1 SSE | 154 3.5 9.9 747 0.019 13.6 -55 0.00 0.00 45.5 70.8 0.099
5/5/26 - 1400 67.2 53 49.6 57.2 ESE | 105 2.4 7.0 672 0.017 13.6 -53 0.00 0.00 45.5 68.1 0.080
5/5/26 - 1300 64.6 57 49.1 56.0 SSE | 164 3.2 8.9 667 0.017 13.6 -53 0.00 0.00 45.5 66.2 0.063
5/5/26 - 1200 62.7 60 48.6 55.1 ESE | 114 2.2 8.3 708 0.017 13.6 -51 0.00 0.00 45.5 64.8 0.046
5/5/26 - 1100 59.4 64 47.4 53.3 E | 86 1.9 6.2 572 0.013 13.7 -53 0.00 0.00 45.5 61.8 0.030
5/5/26 - 1000 57.2 68 46.9 52.1 N | 0 2.2 5.7 368 0.008 13.8 -51 0.00 0.00 45.5 57.8 0.017
5/5/26 - 0900 54.3 73 45.9 50.4 NW | 308 3.1 6.8 340 0.006 13.8 -53 0.00 0.00 45.5 55.4 0.009
5/5/26 - 0800 49.5 88 45.9 48.2 WNW | 294 1.7 6.7 112 0.002 13.9 -53 0.00 0.00 45.5 52.1 0.002
5/5/26 - 0700 45.9 93 44.1 45.5 ESE | 114 0.0 0.9 15 0.000 13.0 -53 0.00 0.00 45.5 50.1 0.000
5/5/26 - 0600 47.9 88 44.5 46.7 SW | 222 0.3 2.4 0 0.000 12.6 -53 0.00 0.00 45.8 50.1 0.000
5/5/26 - 0500 49.2 86 45.4 47.8 SSW | 204 0.5 2.6 0 0.000 12.7 -55 0.00 0.00 49.0 50.1 0.000
5/5/26 - 0400 49.2 86 45.3 47.7 S | 170 0.8 2.8 0 0.000 12.8 -55 0.00 0.00 49.0 50.1 0.000
5/5/26 - 0300 49.7 84 45.2 47.9 W | 275 0.5 3.4 0 0.000 12.8 -55 0.00 0.00 49.3 50.1 0.000
5/5/26 - 0200 50.0 85 45.7 48.3 SW | 232 0.6 2.6 0 0.000 12.8 -55 0.00 0.00 49.9 50.1 0.000
5/5/26 - 0100 50.0 84 45.2 48.1 W | 281 3.0 6.8 0 0.000 12.8 -53 0.00 0.01 49.8 59.7 0.058
5/5/26 - 0000 50.1 84 45.6 48.3 W | 262 3.3 7.8 0 0.000 12.8 -53 0.00 0.01 49.8 59.7 0.058
5/4/26 - 2300 50.5 84 45.7 48.6 WNW | 288 3.8 10.3 0 0.000 12.8 -53 0.00 0.01 49.8 59.7 0.057
5/4/26 - 2200 51.1 84 46.3 49.2 W | 276 3.4 8.3 0 0.000 12.9 -53 0.01 0.01 49.8 59.7 0.057
5/4/26 - 2100 51.8 85 47.4 50.1 WNW | 286 4.9 10.5 0 0.000 12.9 -53 0.00 0.00 49.8 59.7 0.057
5/4/26 - 2000 53.7 79 47.4 50.9 WNW | 300 6.5 12.3 28 0.001 13.0 -53 0.00 0.00 49.8 59.7 0.056
5/4/26 - 1900 55.2 77 48.3 52.1 WSW | 254 5.2 11.6 97 0.003 13.8 -53 0.00 0.00 49.8 59.7 0.055
5/4/26 - 1800 56.8 73 48.1 52.6 WSW | 253 4.8 12.0 87 0.003 13.8 -53 0.00 0.00 49.8 59.7 0.052
5/4/26 - 1700 56.5 72 47.6 52.2 WNW | 300 4.1 8.2 63 0.003 13.8 -87 0.00 0.00 49.8 59.7 0.049
5/4/26 - 1600 58.9 68 48.4 53.6 SSW | 192 3.2 8.4 225 0.006 13.7 -53 0.00 0.00 49.8 59.7 0.046
5/4/26 - 1500 58.0 74 49.8 54.1 SSW | 198 2.4 6.8 382 0.009 13.8 -53 0.00 0.00 49.8 58.8 0.040
5/4/26 - 1400 54.3 83 49.1 52.2 NNW | 348 3.0 6.6 181 0.004 13.8 -51 0.00 0.00 49.8 57.0 0.031
5/4/26 - 1300 55.3 78 48.5 52.2 NNW | 345 3.8 9.0 269 0.007 13.8 -51 0.00 0.00 49.8 57.0 0.026
5/4/26 - 1200 53.8 79 47.3 51.0 NNW | 340 3.2 8.0 132 0.004 13.8 -53 0.00 0.00 49.8 57.0 0.020
5/4/26 - 1100 54.9 72 46.0 50.7 NNW | 342 3.3 6.6 119 0.004 13.7 -51 0.00 0.00 49.8 57.0 0.016
5/4/26 - 1000 55.8 69 45.8 50.9 NW | 319 2.9 7.5 257 0.006 13.8 -53 0.00 0.00 49.8 57.0 0.013
5/4/26 - 0900 52.7 76 45.3 49.4 NW | 316 2.0 5.4 127 0.003 13.8 -53 0.00 0.00 49.8 53.8 0.007
5/4/26 - 0800 51.5 78 44.9 48.6 W | 273 1.6 5.8 81 0.002 13.8 -53 0.00 0.00 49.8 52.6 0.003
5/4/26 - 0700 50.3 82 45.0 48.1 W | 275 1.7 6.4 10 0.000 12.8 -53 0.00 0.00 49.8 51.3 0.002
5/4/26 - 0600 49.8 84 45.1 47.9 NNW | 335 3.9 8.1 0 0.000 12.7 -53 0.00 0.00 49.8 51.3 0.002
5/4/26 - 0500 50.7 84 46.1 48.9 NNW | 336 2.6 7.0 0 0.000 12.7 -55 0.00 0.00 49.9 51.3 0.001
5/4/26 - 0400 51.1 82 45.8 48.9 SSW | 207 0.6 2.2 0 0.000 12.7 -55 0.00 0.00 50.6 51.3 0.001
5/4/26 - 0300 50.8 83 45.8 48.7 NW | 319 2.3 5.5 0 0.000 12.8 -55 0.00 0.00 50.6 51.0 0.001
5/4/26 - 0200 50.7 81 45.1 48.3 NW | 326 2.1 4.6 0 0.000 12.8 -79 0.00 0.00 50.6 50.8 0.000
5/4/26 - 0100 50.7 83 45.7 48.6 NW | 315 3.5 8.2 0 0.000 12.8 -55 0.00 0.00 46.5 66.0 0.131
5/4/26 - 0000 51.3 82 46.1 49.2 NW | 305 5.0 9.5 0 0.001 12.8 -53 0.00 0.00 46.5 66.0 0.131
5/3/26 - 2300 52.8 79 46.5 50.0 NW | 310 5.7 10.3 0 0.001 12.8 -85 0.00 0.00 46.5 66.0 0.130
5/3/26 - 2200 53.8 74 45.6 50.0 WSW | 257 2.5 7.0 0 0.001 12.9 -53 0.00 0.00 46.5 66.0 0.129
5/3/26 - 2100 53.8 73 45.3 49.8 SW | 234 4.4 10.8 0 0.001 12.9 -53 0.00 0.00 46.5 66.0 0.129
5/3/26 - 2000 55.0 72 46.2 50.8 SW | 232 4.4 12.9 16 0.002 12.9 -53 0.00 0.00 46.5 66.0 0.128
5/3/26 - 1900 57.2 68 46.7 52.0 SW | 219 5.8 12.2 42 0.003 13.8 -53 0.00 0.00 46.5 66.0 0.126
5/3/26 - 1800 59.7 61 46.3 52.8 SW | 221 6.2 11.8 77 0.004 13.7 -53 0.00 0.00 46.5 66.0 0.123
5/3/26 - 1700 62.1 58 47.0 54.0 SSW | 210 8.0 14.7 341 0.010 13.7 -53 0.00 0.00 46.5 66.0 0.119
5/3/26 - 1600 64.0 56 48.1 55.3 SSW | 209 8.2 15.4 758 0.018 13.7 -53 0.00 0.00 46.5 66.0 0.109
5/3/26 - 1500 62.8 58 48.0 54.8 SSW | 206 6.5 11.0 739 0.017 13.7 -51 0.00 0.00 46.5 64.8 0.091
5/3/26 - 1400 62.9 59 48.3 55.0 SSW | 200 6.4 12.9 720 0.017 13.7 -51 0.00 0.00 46.5 64.1 0.074
5/3/26 - 1300 61.5 61 47.8 54.3 S | 185 5.1 10.6 629 0.015 13.6 -53 0.00 0.00 46.5 62.2 0.057
5/3/26 - 1200 60.6 62 47.6 53.8 SSW | 203 4.6 9.7 624 0.014 13.7 -53 0.00 0.00 46.5 62.0 0.042
5/3/26 - 1100 59.4 64 47.4 53.3 S | 178 3.2 7.4 629 0.014 13.7 -53 0.00 0.00 46.5 61.6 0.027
5/3/26 - 1000 55.7 73 47.0 51.5 SSW | 211 4.6 8.6 407 0.009 13.8 -53 0.00 0.00 46.5 59.4 0.013
5/3/26 - 0900 53.0 80 47.1 50.5 SW | 214 3.0 7.8 147 0.003 13.8 -53 0.00 0.00 46.5 54.0 0.005
5/3/26 - 0800 49.9 89 46.8 48.9 SW | 228 1.2 4.6 83 0.001 13.9 -53 0.00 0.00 46.5 51.6 0.001
5/3/26 - 0700 47.1 94 45.4 46.8 SSW | 213 0.4 2.6 20 0.000 13.1 -53 0.00 0.00 46.5 49.6 0.000
5/3/26 - 0600 47.0 94 45.5 46.8 SSW | 195 0.6 2.1 0 0.000 12.7 -53 0.00 0.00 46.5 49.6 0.000
5/3/26 - 0500 46.8 95 45.4 46.7 SW | 219 0.3 1.5 0 0.000 12.7 -55 0.00 0.00 46.5 49.6 0.000
5/3/26 - 0400 47.5 94 45.8 47.2 SW | 234 0.3 1.7 0 0.000 12.7 -55 0.00 0.00 46.8 49.6 0.000
5/3/26 - 0300 48.2 93 46.3 47.8 WSW | 246 0.2 1.3 0 0.000 12.8 -55 0.00 0.00 47.7 49.6 0.000
5/3/26 - 0200 49.0 92 46.6 48.4 SW | 217 0.2 1.9 0 0.000 12.8 -55 0.00 0.00 48.3 49.6 0.000
5/3/26 - 0100 50.3 89 47.1 49.3 SW | 221 0.3 2.1 0 0.000 12.8 -55 0.00 0.00 47.2 76.8 0.181
5/3/26 - 0000 51.7 85 47.5 50.1 SW | 236 0.8 2.8 0 0.000 12.8 -53 0.00 0.00 47.2 76.8 0.181
5/2/26 - 2300 53.3 81 47.7 51.0 SW | 232 1.5 3.5 0 0.000 12.8 -53 0.00 0.00 47.2 76.8 0.181
5/2/26 - 2200 55.8 76 48.3 52.3 SW | 230 1.7 4.1 0 0.000 12.8 -53 0.00 0.00 47.2 76.8 0.181
5/2/26 - 2100 58.0 71 48.5 53.4 SSW | 213 3.0 7.2 0 0.000 12.9 -53 0.00 0.00 47.2 76.8 0.181
5/2/26 - 2000 62.2 60 48.1 54.7 SW | 220 4.3 8.7 49 0.001 13.1 -53 0.00 0.00 47.2 76.8 0.181
5/2/26 - 1900 65.5 52 47.2 55.3 SW | 227 4.6 14.6 189 0.006 13.6 -53 0.00 0.00 47.2 76.8 0.179
5/2/26 - 1800 66.9 47 46.0 55.1 SW | 217 8.6 15.3 307 0.011 13.6 -55 0.00 0.00 47.2 76.8 0.174
5/2/26 - 1700 71.7 35 42.6 55.0 SW | 232 6.6 12.9 556 0.017 13.5 -53 0.00 0.00 47.2 76.8 0.163
5/2/26 - 1600 73.2 27 37.4 53.4 SW | 233 5.3 11.6 649 0.019 13.5 -53 0.00 0.00 47.2 76.8 0.146
5/2/26 - 1500 73.9 34 43.8 56.1 SW | 228 6.7 13.0 790 0.023 13.5 -53 0.00 0.00 47.2 76.8 0.127
5/2/26 - 1400 75.7 28 39.7 54.9 E | 92 4.2 9.1 950 0.027 13.5 -53 0.00 0.00 47.2 76.8 0.104
5/2/26 - 1300 72.5 32 40.7 54.4 ESE | 104 3.6 7.5 834 0.023 13.4 -53 0.00 0.00 47.2 74.1 0.078
5/2/26 - 1200 70.3 36 41.5 54.1 E | 100 3.2 6.6 792 0.021 13.6 -53 0.00 0.00 47.2 71.4 0.055
5/2/26 - 1100 67.9 53 50.0 57.6 ESE | 105 2.4 6.2 653 0.016 13.6 -53 0.00 0.00 47.2 68.5 0.034
5/2/26 - 1000 63.7 62 50.6 56.6 ENE | 58 1.3 3.8 482 0.011 13.7 -53 0.00 0.00 47.2 66.3 0.018
5/2/26 - 0900 57.7 74 49.4 53.7 SW | 220 0.4 2.0 244 0.005 13.8 -53 0.00 0.00 47.2 62.2 0.007
5/2/26 - 0800 50.9 86 47.1 49.5 SW | 222 0.7 2.6 107 0.002 13.8 -53 0.00 0.00 47.2 54.0 0.002
5/2/26 - 0700 48.5 89 45.5 47.5 SSW | 209 0.9 2.9 14 0.000 13.0 -53 0.00 0.00 47.2 52.0 0.000
5/2/26 - 0600 49.0 88 45.5 47.8 SW | 229 0.9 3.1 0 0.000 12.7 -53 0.00 0.00 47.2 52.0 0.000
5/2/26 - 0500 47.8 90 45.1 47.0 SSW | 199 0.6 2.7 0 0.000 12.7 -53 0.00 0.00 47.2 52.0 0.000
5/2/26 - 0400 49.2 87 45.5 47.8 SW | 216 0.3 1.5 0 0.000 12.7 -55 0.00 0.00 48.3 52.0 0.000
5/2/26 - 0300 51.3 81 45.8 49.0 SW | 216 2.0 5.3 0 0.000 12.8 -55 0.00 0.00 50.6 52.0 0.000
5/2/26 - 0200 51.0 85 46.5 49.2 SSW | 205 0.6 2.5 0 0.000 12.8 -53 0.00 0.00 50.6 52.0 0.000
5/2/26 - 0100 52.8 82 47.5 50.6 SW | 232 0.5 3.6 0 0.000 12.8 -55 0.00 0.00 45.5 82.5 0.180
5/2/26 - 0000 56.2 79 49.9 53.4 SSW | 208 0.6 3.6 0 0.000 12.8 -53 0.00 0.00 45.5 82.5 0.180
5/1/26 - 2300 58.1 80 51.9 55.4 SSW | 198 1.3 3.6 0 0.000 12.8 -53 0.00 0.00 45.5 82.5 0.180
5/1/26 - 2200 61.5 73 52.8 57.2 SSW | 206 2.1 4.4 0 0.000 12.9 -53 0.00 0.00 45.5 82.5 0.180
5/1/26 - 2100 65.7 64 53.2 58.9 SW | 224 1.9 9.5 0 0.000 12.9 -53 0.00 0.00 45.5 82.5 0.180
5/1/26 - 2000 70.4 55 53.7 60.5 SW | 230 4.4 10.7 43 0.002 13.0 -53 0.00 0.00 45.5 82.5 0.180
5/1/26 - 1900 75.9 42 50.7 60.3 SW | 215 5.1 12.2 117 0.006 13.5 -53 0.00 0.00 45.5 82.5 0.178
5/1/26 - 1800 81.2 24 41.4 57.0 SW | 222 4.6 9.2 396 0.013 13.4 -53 0.00 0.00 45.5 82.5 0.171
5/1/26 - 1700 81.5 23 40.4 56.7 SW | 217 4.6 9.1 569 0.018 13.4 -53 0.00 0.00 45.5 82.5 0.158
5/1/26 - 1600 81.6 25 42.3 57.5 SW | 214 4.7 11.4 571 0.019 13.5 -53 0.00 0.00 45.5 82.4 0.140
5/1/26 - 1500 81.3 27 43.7 58.0 SSW | 203 4.2 9.5 673 0.021 13.5 -53 0.00 0.00 45.5 82.2 0.120
5/1/26 - 1400 80.4 31 46.7 59.1 SE | 124 2.4 5.2 687 0.020 13.4 -53 0.00 0.00 45.5 81.5 0.099
5/1/26 - 1300 77.4 36 48.4 59.3 ESE | 119 2.4 5.1 791 0.022 13.5 -53 0.00 0.00 45.5 79.4 0.078
5/1/26 - 1200 75.2 43 51.4 60.3 E | 94 2.4 5.4 709 0.020 13.5 -53 0.00 0.00 45.5 75.9 0.056
5/1/26 - 1100 71.9 50 52.0 59.9 ENE | 63 1.8 4.2 641 0.017 13.6 -53 0.00 0.00 45.5 74.3 0.037
Max 81.6 97 56.5 63.2 - 8.6 15.4 950 0.027 13.9 -51 0.01 0.01 54.2 82.7 0.199
Avg 59.2 69 47.6 52.9 - 2.8 6.8 230 0.006 13.2 -54.4405 0.00 - - - -
Min 42.5 23 36.4 41.3 - 0.0 0.9 0 0.000 12.6 -87 0.00 0.00 41.7 47.3 0.000
Total - - - - - - - - 1.048 - - 0.01 - - - -